DW6654 Weather Reports


Display with metric or nautical units.
time (UTC)temp
F
wind
direction
speed
MPH
gust
MPH
rain 1hr
in
rain 24hr
in
rain mn
in
humidity
%
barometer
mb
20240717130015 78 146 3.0 9.0 0.00 0.93 0.00 72 1009.9
20240717124513 78 207 1.0 3.0 0.00 0.93 0.00 76 1009.9
20240717123014 77 116 1.0 4.0 0.00 0.93 0.00 75 1010.0
20240717121506 76 167 1.0 5.0 0.00 0.93 0.00 78 1009.8
20240717120102 75 178 1.0 3.0 0.00 0.93 0.00 81 1009.7
20240717114636 73 207 4.0 9.0 0.00 0.93 0.00 82 1009.7
20240717113103 72 163 4.0 8.0 0.00 0.93 0.00 84 1010.0
20240717111608 71 160 3.0 8.0 0.00 0.93 0.00 85 1009.8
20240717110054 70 119 2.0 8.0 0.00 0.93 0.00 87 1009.7
20240717104610 69 178 2.0 7.0 0.00 0.93 0.00 90 1009.3
20240717103051 68 169 2.0 8.0 0.00 0.93 0.00 92 1009.4
20240717101549 67 145 2.0 7.0 0.00 0.93 0.00 94 1009.2
20240717100046 67 123 2.0 3.0 0.00 0.93 0.00 95 1008.8
20240717094544 66 154 1.0 3.0 0.00 0.93 0.00 95 1008.7
20240717093047 66 154 1.0 2.0 0.00 0.93 0.00 94 1008.5
20240717091536 67 154 0.0 2.0 0.00 0.93 0.00 92 1008.3
20240717090033 68 154 1.0 3.0 0.00 0.93 0.00 91 1008.4
20240717084531 69 355 1.0 4.0 0.00 0.93 0.00 88 1008.4
20240717083033 69 198 1.0 5.0 0.00 0.93 0.00 89 1008.2
20240717081529 69 9 0.0 4.0 0.00 0.93 0.00 88 1008.2
20240717080028 70 355 0.0 3.0 0.00 0.93 0.00 88 1008.3
20240717074527 71 165 1.0 6.0 0.00 0.93 0.00 86 1008.1
20240717073026 71 172 2.0 5.0 0.00 0.93 0.00 86 1008.0
20240717071525 70 257 2.0 8.0 0.00 0.93 0.00 87 1007.9
20240717070025 70 269 3.0 8.0 0.00 0.93 0.00 89 1008.0
20240717064533 70 190 1.0 8.0 0.00 0.93 0.00 91 1008.0
20240717063021 70 162 2.0 6.0 0.00 0.93 0.00 90 1008.0
20240717061519 70 170 2.0 5.0 0.00 0.93 0.00 89 1007.8
20240717060016 70 217 3.0 8.0 0.00 0.93 0.00 90 1007.4
20240717054524 70 182 2.0 9.0 0.00 0.93 0.00 90 1007.3
20240717053020 71 205 1.0 5.0 0.00 0.93 0.00 90 1007.2
20240717051513 71 5 3.0 8.0 0.00 0.93 0.00 90 1007.1
20240717050010 71 148 2.0 9.0 0.00 0.93 0.00 90 1007.0
20240717044508 71 309 4.0 10.0 0.00 0.93 0.00 90 1006.6
20240717043006 71 288 4.0 9.0 0.00 0.93 0.00 90 1006.6
20240717041503 72 135 3.0 12.0 0.00 0.93 0.00 89 1006.9
20240717040058 72 83 2.0 10.0 0.00 0.93 0.00 90 1006.5
20240717034559 71 277 2.0 8.0 0.00 0.93 0.93 91 1006.4
20240717033057 71 157 5.0 10.0 0.00 0.93 0.93 92 1006.1
20240717031556 71 37 2.0 8.0 0.00 0.93 0.93 92 1006.3
20240717030054 71 184 1.0 6.0 0.00 0.93 0.93 93 1006.2
20240717024553 71 311 2.0 6.0 0.00 0.93 0.93 93 1006.1
20240717023053 71 215 4.0 11.0 0.00 0.93 0.93 93 1006.1
20240717021551 71 195 2.0 9.0 0.00 0.93 0.93 93 1006.2
20240717020051 71 277 0.0 6.0 0.00 0.93 0.93 93 1005.9
20240717014557 71 159 2.0 7.0 0.00 0.93 0.93 94 1005.8
20240717013050 71 240 1.0 3.0 0.10 0.93 0.93 94 1006.1
20240717011547 71 281 1.0 7.0 0.26 0.93 0.93 94 1006.0
20240717010046 71 207 1.0 5.0 0.28 0.93 0.93 94 1006.3
20240717004546 71 232 1.0 9.0 0.91 0.93 0.93 94 1006.1
20240717001549 72 282 3.0 12.0 0.67 0.67 0.67 92 1006.1
20240717000040 73 209 2.0 16.0 0.63 0.63 0.63 88 1005.9
20240716234538 81 200 1.0 3.0 0.01 0.01 0.01 76 1004.9
20240716233043 82 144 0.0 4.0 0.00 0.00 0.00 71 1004.5
20240716231537 83 157 3.0 6.0 0.00 0.00 0.00 70 1004.8
20240716230036 83 140 1.0 7.0 0.00 0.00 0.00 69 1004.6
20240716224540 84 160 3.0 8.0 0.00 0.00 0.00 67 1004.4
20240716223034 84 121 3.0 7.0 0.00 0.00 0.00 66 1004.5
20240716221534 85 120 4.0 15.0 0.00 0.00 0.00 64 1004.7
20240716220032 86 175 3.0 9.0 0.00 0.00 0.00 62 1004.7
20240716214530 86 139 4.0 11.0 0.00 0.00 0.00 61 1005.1
20240716213030 86 134 7.0 13.0 0.00 0.00 0.00 61 1005.0
20240716211529 88 184 2.0 11.0 0.00 0.00 0.00 60 1005.2
20240716210027 87 111 3.0 11.0 0.00 0.00 0.00 59 1005.0
20240716204535 88 182 6.0 16.0 0.00 0.00 0.00 59 1005.5
20240716203026 87 164 6.0 16.0 0.00 0.00 0.00 58 1005.3
20240716201525 87 181 5.0 14.0 0.00 0.00 0.00 59 1005.5
20240716200030 88 131 3.0 11.0 0.00 0.00 0.00 59 1005.6
20240716194532 87 144 6.0 14.0 0.00 0.00 0.00 58 1005.7
20240716193022 87 136 5.0 12.0 0.00 0.00 0.00 59 1006.0
20240716191525 87 271 3.0 12.0 0.00 0.00 0.00 61 1006.3
20240716190037 87 188 4.0 13.0 0.00 0.00 0.00 59 1006.4
20240716184519 87 175 5.0 11.0 0.00 0.00 0.00 59 1006.7
20240716183019 87 146 2.0 12.0 0.00 0.00 0.00 57 1007.0
20240716181517 87 254 3.0 12.0 0.00 0.00 0.00 57 1007.2
20240716180015 87 225 2.0 10.0 0.00 0.00 0.00 61 1007.3
20240716174522 86 140 8.0 17.0 0.00 0.00 0.00 59 1007.5
20240716173012 86 166 5.0 12.0 0.00 0.00 0.00 59 1007.6
20240716171518 86 115 3.0 8.0 0.00 0.00 0.00 60 1007.7
20240716170010 85 148 4.0 8.0 0.00 0.00 0.00 61 1007.9
20240716164507 85 121 1.0 9.0 0.00 0.00 0.00 62 1007.8
20240716163007 85 186 2.0 9.0 0.00 0.00 0.00 63 1007.9
20240716161505 85 221 2.0 7.0 0.00 0.00 0.00 63 1008.0
20240716160005 83 173 2.0 10.0 0.00 0.00 0.00 65 1008.0
20240716154608 83 165 1.0 11.0 0.00 0.00 0.00 69 1008.2
20240716153057 82 151 1.0 11.0 0.00 0.00 0.00 67 1008.2
20240716151556 81 355 5.0 11.0 0.00 0.00 0.00 66 1008.0
20240716150117 81 297 3.0 10.0 0.00 0.00 0.00 67 1007.9
20240716144601 81 159 0.0 7.0 0.00 0.00 0.00 70 1008.0
20240716143049 81 217 3.0 15.0 0.00 0.00 0.00 69 1008.0
20240716141545 80 190 4.0 11.0 0.00 0.00 0.00 70 1007.8
20240716140043 80 134 3.0 14.0 0.00 0.00 0.00 70 1007.8
20240716134541 79 294 4.0 13.0 0.00 0.00 0.00 72 1007.4
20240716133105 78 185 5.0 12.0 0.00 0.00 0.00 72 1007.0
20240716131536 78 192 3.0 15.0 0.00 0.00 0.00 75 1007.0